createdAt,value
2022-08-31T00:02:25.785Z,2.17
2022-08-31T00:04:53.934Z,2.25
2022-08-31T00:07:21.075Z,2.03
2022-08-31T00:09:47.940Z,2.28
2022-08-31T00:12:14.646Z,2.08
2022-08-31T00:14:41.792Z,1.98
2022-08-31T00:17:09.094Z,2.10
2022-08-31T00:19:35.868Z,2.08
2022-08-31T00:22:03.434Z,2.30
2022-08-31T00:24:32.315Z,2.20
2022-08-31T00:26:59.474Z,1.90
2022-08-31T00:29:26.591Z,2.08
2022-08-31T00:31:53.763Z,1.85
2022-08-31T00:34:22.565Z,2.00
2022-08-31T00:36:49.774Z,1.95
2022-08-31T00:39:16.882Z,2.15
2022-08-31T00:41:43.688Z,2.03
2022-08-31T00:44:11.700Z,1.95
2022-08-31T00:46:42.130Z,2.28
2022-08-31T00:49:13.772Z,1.75
2022-08-31T00:51:46.568Z,2.03
2022-08-31T00:54:16.810Z,2.05
2022-08-31T00:56:45.125Z,2.13
2022-08-31T00:59:14.079Z,2.25
2022-08-31T01:01:41.296Z,2.20
2022-08-31T01:04:08.110Z,2.13
2022-08-31T01:06:35.409Z,2.17
2022-08-31T01:09:04.520Z,2.08
2022-08-31T01:11:32.020Z,1.90
2022-08-31T01:13:59.766Z,2.72
2022-08-31T01:16:41.929Z,2.10
2022-08-31T01:19:17.997Z,2.05
2022-08-31T01:22:06.498Z,2.03
2022-08-31T01:24:34.037Z,2.20
2022-08-31T01:27:04.845Z,2.10
2022-08-31T01:29:32.534Z,2.10
2022-08-31T01:31:59.432Z,1.77
2022-08-31T01:34:26.493Z,2.00
2022-08-31T01:36:54.212Z,2.38
2022-08-31T01:39:21.414Z,2.03
2022-08-31T01:41:48.715Z,2.47
2022-08-31T01:44:19.515Z,2.17
2022-08-31T01:46:47.635Z,2.20
2022-08-31T01:49:16.159Z,2.30
2022-08-31T01:51:43.803Z,2.40
2022-08-31T01:54:11.288Z,1.88
2022-08-31T01:56:42.109Z,2.10
2022-08-31T01:59:14.559Z,2.17
2022-08-31T02:01:53.179Z,2.22
2022-08-31T02:04:23.214Z,2.00
2022-08-31T02:06:57.335Z,2.28
2022-08-31T02:09:24.927Z,1.83
2022-08-31T02:11:52.539Z,1.92
2022-08-31T02:14:20.580Z,2.00
2022-08-31T02:16:47.479Z,2.15
2022-08-31T02:19:14.795Z,2.30
2022-08-31T02:21:41.980Z,2.33
2022-08-31T02:24:11.284Z,2.25
2022-08-31T02:26:39.339Z,2.10
2022-08-31T02:29:07.495Z,2.13
2022-08-31T02:31:34.996Z,2.22
2022-08-31T02:34:03.212Z,2.35
2022-08-31T02:36:32.420Z,2.40
2022-08-31T02:39:02.780Z,2.40
2022-08-31T02:41:31.544Z,2.60
2022-08-31T02:43:58.681Z,2.00
2022-08-31T02:46:25.457Z,2.83
2022-08-31T02:49:04.667Z,2.90
2022-08-31T02:51:31.974Z,1.98
2022-08-31T02:53:59.143Z,2.15
2022-08-31T02:56:26.416Z,2.33
2022-08-31T02:58:55.108Z,2.20
2022-08-31T03:01:24.233Z,2.25
2022-08-31T03:03:51.109Z,2.10
2022-08-31T03:06:19.698Z,2.65
2022-08-31T03:08:47.379Z,2.08
2022-08-31T03:11:15.603Z,3.00
2022-08-31T03:13:43.154Z,2.42
2022-08-31T03:16:12.941Z,2.55
2022-08-31T03:18:39.888Z,2.20
2022-08-31T03:21:08.095Z,1.98
2022-08-31T03:23:36.038Z,2.33
2022-08-31T03:26:05.850Z,2.50
2022-08-31T03:28:33.924Z,2.20
2022-08-31T03:31:27.139Z,2.65
2022-08-31T03:33:55.299Z,2.50
2022-08-31T03:36:22.489Z,2.00
2022-08-31T03:38:49.691Z,2.13
2022-08-31T03:41:20.849Z,2.28
2022-08-31T03:43:47.647Z,2.15
2022-08-31T03:46:14.867Z,2.30
2022-08-31T03:48:43.777Z,1.83
2022-08-31T03:51:10.964Z,2.13
2022-08-31T03:53:38.275Z,1.90
2022-08-31T03:56:08.429Z,1.92
2022-08-31T03:58:39.014Z,1.70
2022-08-31T04:01:07.477Z,1.75
2022-08-31T04:03:57.945Z,1.92
2022-08-31T04:06:44.751Z,1.70
2022-08-31T04:09:31.518Z,1.70
2022-08-31T04:11:58.176Z,1.80
2022-08-31T04:14:44.223Z,1.90
2022-08-31T04:17:30.267Z,1.92
2022-08-31T04:20:17.070Z,1.65
2022-08-31T04:22:48.053Z,1.42
2022-08-31T04:25:42.970Z,1.67
2022-08-31T04:28:11.482Z,1.35
2022-08-31T04:30:42.422Z,1.50
2022-08-31T04:33:11.669Z,1.80
2022-08-31T04:35:43.651Z,1.40
2022-08-31T04:38:11.225Z,1.40
2022-08-31T04:40:41.595Z,1.70
2022-08-31T04:43:08.783Z,1.42
2022-08-31T04:45:40.808Z,1.52
2022-08-31T04:48:09.360Z,1.67
2022-08-31T04:50:42.292Z,1.70
2022-08-31T04:53:09.987Z,1.50
2022-08-31T04:55:40.967Z,1.60
2022-08-31T04:58:09.235Z,2.00
2022-08-31T05:00:37.450Z,1.73
2022-08-31T05:03:18.882Z,1.50
2022-08-31T05:05:49.273Z,1.70
2022-08-31T05:08:16.234Z,1.48
2022-08-31T05:10:43.695Z,2.50
2022-08-31T05:13:11.064Z,1.90
2022-08-31T05:15:45.369Z,2.00
2022-08-31T05:18:18.045Z,1.48
2022-08-31T05:20:54.816Z,1.42
2022-08-31T05:23:21.944Z,1.33
2022-08-31T05:25:50.423Z,1.42
2022-08-31T05:28:23.446Z,1.60
2022-08-31T05:30:50.901Z,1.38
2022-08-31T05:33:38.861Z,1.42
2022-08-31T05:36:06.878Z,1.60
2022-08-31T05:38:34.864Z,1.90
2022-08-31T05:41:03.100Z,1.95
2022-08-31T05:43:30.506Z,1.50
2022-08-31T05:45:57.880Z,1.80
2022-08-31T05:48:29.852Z,1.80
2022-08-31T05:51:01.753Z,1.55
2022-08-31T05:53:29.351Z,1.60
2022-08-31T05:56:06.679Z,1.65
2022-08-31T05:58:34.419Z,1.20
2022-08-31T06:01:01.691Z,1.73
2022-08-31T06:03:48.900Z,1.50
2022-08-31T06:06:16.750Z,1.38
2022-08-31T06:08:44.346Z,1.17
2022-08-31T06:11:20.361Z,1.30
2022-08-31T06:13:50.595Z,1.23
2022-08-31T06:16:21.515Z,1.20
2022-08-31T06:18:51.731Z,1.38
2022-08-31T06:21:25.627Z,1.50
2022-08-31T06:23:54.257Z,1.80
2022-08-31T06:26:24.801Z,1.38
2022-08-31T06:28:54.907Z,1.48
2022-08-31T06:31:27.714Z,1.40
2022-08-31T06:33:58.218Z,1.45
2022-08-31T06:39:21.423Z,1.33
2022-08-31T06:41:56.113Z,1.42
2022-08-31T06:44:38.037Z,1.33
2022-08-31T06:47:17.237Z,1.17
2022-08-31T06:49:46.615Z,1.17
2022-08-31T06:52:14.646Z,1.30
2022-08-31T06:54:43.826Z,1.50
2022-08-31T06:57:33.677Z,1.10
2022-08-31T07:00:21.251Z,1.00
2022-08-31T07:03:24.507Z,1.05
2022-08-31T07:05:52.982Z,0.90
2022-08-31T07:08:20.992Z,0.98
2022-08-31T07:10:48.751Z,1.10
2022-08-31T07:13:15.609Z,1.20
2022-08-31T07:15:42.894Z,0.90
2022-08-31T07:18:10.539Z,0.95
2022-08-31T07:20:37.556Z,1.20
2022-08-31T07:25:39.619Z,1.13
2022-08-31T07:28:06.775Z,1.00
2022-08-31T07:30:38.100Z,1.35
2022-08-31T07:33:06.679Z,1.40
2022-08-31T07:35:35.402Z,1.42
2022-08-31T07:38:40.451Z,1.30
2022-08-31T07:41:29.788Z,1.40
2022-08-31T07:44:00.210Z,1.73
2022-08-31T07:46:31.325Z,1.40
2022-08-31T07:48:59.487Z,1.70
2022-08-31T07:51:43.428Z,1.50
2022-08-31T07:54:29.933Z,1.60
2022-08-31T07:57:05.180Z,1.45
2022-08-31T07:59:33.991Z,1.40
2022-08-31T08:02:04.867Z,1.50
2022-08-31T08:04:34.537Z,1.42
2022-08-31T08:07:21.611Z,1.60
2022-08-31T08:10:14.474Z,1.65
2022-08-31T08:13:04.211Z,1.70
2022-08-31T08:15:44.409Z,1.77
2022-08-31T08:18:13.448Z,1.65
2022-08-31T08:20:46.763Z,1.65
2022-08-31T08:23:18.072Z,1.80
2022-08-31T08:26:21.307Z,1.70
2022-08-31T08:29:01.008Z,1.60
2022-08-31T08:31:28.900Z,1.75
2022-08-31T08:33:56.147Z,1.67
2022-08-31T08:36:24.761Z,1.85
2022-08-31T08:38:54.663Z,1.80
2022-08-31T08:41:26.985Z,1.77
2022-08-31T08:43:57.523Z,1.40
2022-08-31T08:46:40.527Z,1.65
2022-08-31T08:49:28.516Z,1.65
2022-08-31T08:52:06.743Z,1.40
2022-08-31T08:54:41.545Z,1.70
2022-08-31T08:57:14.379Z,1.58
2022-08-31T08:59:47.868Z,1.50
2022-08-31T09:02:23.197Z,1.70
2022-08-31T09:05:35.030Z,1.58
2022-08-31T09:08:36.575Z,1.60
2022-08-31T09:11:14.874Z,1.52
2022-08-31T09:14:06.471Z,1.60
2022-08-31T09:16:44.726Z,1.42
2022-08-31T09:19:17.874Z,1.40
2022-08-31T09:21:52.639Z,1.60
2022-08-31T09:24:22.508Z,1.40
2022-08-31T09:27:19.423Z,1.52
2022-08-31T09:29:55.056Z,1.83
2022-08-31T09:32:26.522Z,1.40
2022-08-31T09:35:01.670Z,1.48
2022-08-31T09:40:23.624Z,1.50
2022-08-31T09:43:02.103Z,1.73
2022-08-31T09:45:39.954Z,1.35
2022-08-31T09:48:09.785Z,1.40
2022-08-31T09:50:46.236Z,1.38
2022-08-31T09:53:44.165Z,1.35
2022-08-31T09:56:20.512Z,1.30
2022-08-31T10:01:31.152Z,1.23
2022-08-31T10:04:28.109Z,1.48
2022-08-31T10:07:44.389Z,1.50
2022-08-31T10:10:28.025Z,1.20
2022-08-31T10:13:11.191Z,1.45
2022-08-31T10:15:53.926Z,1.42
2022-08-31T10:18:39.982Z,1.73
2022-08-31T10:23:54.129Z,1.60
2022-08-31T10:26:36.013Z,1.60
2022-08-31T10:29:19.994Z,1.30
2022-08-31T10:31:53.770Z,1.40
2022-08-31T10:34:43.126Z,1.60
2022-08-31T10:37:26.080Z,1.60
2022-08-31T10:39:58.402Z,1.50
2022-08-31T10:42:30.192Z,1.55
2022-08-31T10:45:18.746Z,1.50
2022-08-31T10:47:49.545Z,1.20
2022-08-31T10:50:32.986Z,1.30
2022-08-31T10:53:15.359Z,1.50
2022-08-31T10:56:12.295Z,1.35
2022-08-31T10:59:00.920Z,1.50
2022-08-31T11:01:59.929Z,1.33
2022-08-31T11:04:33.346Z,1.70
2022-08-31T11:07:26.485Z,1.48
2022-08-31T11:10:05.408Z,1.40
2022-08-31T11:12:42.654Z,1.40
2022-08-31T11:15:43.937Z,1.65
2022-08-31T11:18:44.297Z,1.40
2022-08-31T11:21:50.947Z,1.65
2022-08-31T11:24:49.170Z,1.40
2022-08-31T11:27:45.451Z,1.30
2022-08-31T11:30:27.855Z,1.52
2022-08-31T11:33:01.168Z,1.05
2022-08-31T11:36:07.234Z,1.20
2022-08-31T11:38:52.322Z,1.38
2022-08-31T11:41:31.371Z,1.60
2022-08-31T11:43:58.356Z,1.40
2022-08-31T11:46:28.749Z,1.58
2022-08-31T11:48:55.540Z,1.52
2022-08-31T11:51:41.601Z,1.27
2022-08-31T11:54:13.003Z,1.38
2022-08-31T11:56:44.156Z,1.48
2022-08-31T11:59:35.524Z,1.20
2022-08-31T12:02:22.529Z,1.13
2022-08-31T12:04:52.240Z,1.40
2022-08-31T12:07:35.775Z,1.20
2022-08-31T12:10:27.812Z,1.60
2022-08-31T12:13:18.892Z,1.38
2022-08-31T12:16:07.898Z,1.23
2022-08-31T12:18:42.768Z,1.35
2022-08-31T12:21:44.437Z,1.20
2022-08-31T12:24:29.739Z,1.30
2022-08-31T12:27:21.565Z,1.50
2022-08-31T12:29:50.017Z,1.17
2022-08-31T12:32:39.571Z,1.55
2022-08-31T12:35:25.186Z,1.30
2022-08-31T12:38:04.946Z,1.15
2022-08-31T12:40:54.698Z,1.10
2022-08-31T12:43:28.500Z,1.50
2022-08-31T12:46:14.307Z,1.20
2022-08-31T12:48:57.693Z,1.10
2022-08-31T12:52:01.815Z,1.02
2022-08-31T12:54:47.112Z,1.05
2022-08-31T12:57:28.967Z,1.10
2022-08-31T13:00:08.386Z,1.20
2022-08-31T13:02:48.335Z,1.40
2022-08-31T13:05:36.765Z,1.20
2022-08-31T13:08:21.071Z,1.30
2022-08-31T13:10:48.100Z,1.40
2022-08-31T13:13:27.502Z,1.20
2022-08-31T13:16:07.809Z,0.98
2022-08-31T13:18:35.860Z,1.15
2022-08-31T13:21:05.777Z,1.15
2022-08-31T13:23:38.688Z,2.53
2022-08-31T13:26:24.968Z,1.08
2022-08-31T13:28:57.839Z,1.05
2022-08-31T13:31:29.363Z,1.00
2022-08-31T13:34:01.945Z,1.00
2022-08-31T13:36:38.481Z,1.20
2022-08-31T13:39:16.758Z,1.30
2022-08-31T13:42:07.101Z,1.23
2022-08-31T13:44:39.923Z,0.90
2022-08-31T13:47:29.506Z,1.10
2022-08-31T13:50:21.776Z,1.10
2022-08-31T13:53:22.658Z,1.35
2022-08-31T13:55:43.623Z,0.95
2022-08-31T13:58:30.761Z,1.20
2022-08-31T14:01:18.784Z,1.25
2022-08-31T14:03:59.156Z,1.13
2022-08-31T14:06:32.119Z,1.25
2022-08-31T14:09:17.081Z,1.52
2022-08-31T14:11:53.954Z,1.00
2022-08-31T14:14:35.661Z,1.15
2022-08-31T14:17:03.649Z,1.30
2022-08-31T14:19:32.263Z,1.10
2022-08-31T14:22:30.704Z,1.13
2022-08-31T14:25:00.480Z,1.20
2022-08-31T14:27:28.207Z,1.23
2022-08-31T14:29:55.785Z,1.10
2022-08-31T14:32:22.927Z,1.10
2022-08-31T14:34:51.104Z,1.20
2022-08-31T14:37:29.907Z,1.15
2022-08-31T14:40:07.684Z,1.33
2022-08-31T14:42:37.505Z,1.00
2022-08-31T14:47:41.955Z,1.20
2022-08-31T14:52:39.684Z,1.20
2022-08-31T14:55:11.035Z,1.00
2022-08-31T14:57:43.794Z,0.93
2022-08-31T15:00:16.456Z,1.13
2022-08-31T15:02:43.815Z,1.25
2022-08-31T15:05:10.948Z,1.30
2022-08-31T15:07:40.627Z,1.05
2022-08-31T15:10:11.287Z,1.17
2022-08-31T15:12:38.226Z,1.35
2022-08-31T15:15:07.715Z,1.10
2022-08-31T15:17:36.150Z,1.30
2022-08-31T15:20:06.442Z,1.20
2022-08-31T15:22:35.243Z,1.02
2022-08-31T15:25:02.861Z,1.05
2022-08-31T15:27:30.679Z,1.67
2022-08-31T15:30:02.437Z,1.13
2022-08-31T15:32:29.228Z,1.20
2022-08-31T15:34:57.704Z,1.00
2022-08-31T15:37:31.818Z,1.10
2022-08-31T15:40:01.719Z,1.30
2022-08-31T15:42:29.601Z,1.02
2022-08-31T15:44:57.410Z,1.25
2022-08-31T15:47:57.826Z,1.40
2022-08-31T15:50:31.330Z,1.20
2022-08-31T15:53:05.183Z,1.23
2022-08-31T15:55:36.102Z,1.17
2022-08-31T15:58:04.034Z,1.05
2022-08-31T16:00:32.541Z,1.30
2022-08-31T16:03:01.111Z,1.63
2022-08-31T16:05:29.552Z,1.38
2022-08-31T16:07:57.119Z,1.45
2022-08-31T16:10:27.489Z,1.50
2022-08-31T16:12:54.566Z,1.30
2022-08-31T16:15:24.702Z,1.90
2022-08-31T16:17:57.324Z,1.13
2022-08-31T16:20:24.491Z,1.10
2022-08-31T16:22:51.175Z,1.50
2022-08-31T16:25:20.394Z,1.30
2022-08-31T16:27:47.441Z,0.95
2022-08-31T16:30:14.665Z,1.20
2022-08-31T16:32:41.756Z,1.25
2022-08-31T16:35:08.843Z,1.45
2022-08-31T16:37:35.687Z,1.20
2022-08-31T16:40:04.206Z,1.38
2022-08-31T16:42:31.400Z,1.20
2022-08-31T16:45:02.321Z,1.45
2022-08-31T16:47:29.984Z,1.20
2022-08-31T16:49:59.836Z,1.27
2022-08-31T16:52:27.152Z,1.02
2022-08-31T16:54:56.846Z,1.58
2022-08-31T16:57:27.104Z,0.98
2022-08-31T16:59:56.051Z,1.25
2022-08-31T17:02:24.135Z,1.23
2022-08-31T17:04:53.345Z,1.15
2022-08-31T17:07:23.704Z,1.65
2022-08-31T17:09:50.984Z,1.20
2022-08-31T17:12:21.247Z,1.17
2022-08-31T17:14:52.405Z,1.13
2022-08-31T17:17:23.346Z,0.90
2022-08-31T17:19:52.007Z,1.17
2022-08-31T17:22:29.968Z,1.15
2022-08-31T17:25:03.447Z,1.10
2022-08-31T17:27:33.068Z,1.20
2022-08-31T17:30:05.709Z,1.10
2022-08-31T17:32:34.798Z,1.42
2022-08-31T17:35:04.060Z,1.10
2022-08-31T17:37:36.523Z,1.35
2022-08-31T17:40:10.057Z,1.63
2022-08-31T17:42:37.234Z,1.20
2022-08-31T17:45:08.389Z,1.20
2022-08-31T17:47:35.976Z,1.50
2022-08-31T17:50:03.163Z,1.40
2022-08-31T17:52:30.249Z,1.00
2022-08-31T17:55:00.709Z,1.10
2022-08-31T17:57:29.196Z,1.15
2022-08-31T17:59:56.610Z,1.10
2022-08-31T18:02:32.087Z,1.23
2022-08-31T18:04:59.480Z,1.50
2022-08-31T18:07:26.432Z,1.20
2022-08-31T18:09:53.660Z,1.27
2022-08-31T18:12:22.041Z,1.27
2022-08-31T18:14:49.620Z,1.20
2022-08-31T18:17:17.054Z,1.00
2022-08-31T18:19:44.700Z,1.13
2022-08-31T18:22:14.040Z,1.67
2022-08-31T18:24:41.591Z,1.20
2022-08-31T18:27:09.816Z,1.10
2022-08-31T18:29:37.707Z,1.08
2022-08-31T18:32:06.576Z,1.10
2022-08-31T18:34:37.655Z,1.20
2022-08-31T18:37:04.578Z,1.52
2022-08-31T18:39:52.416Z,1.20
2022-08-31T18:42:38.826Z,1.25
2022-08-31T18:45:16.566Z,1.20
2022-08-31T18:47:56.651Z,1.30
2022-08-31T18:50:35.024Z,0.90
2022-08-31T18:53:04.242Z,1.30
2022-08-31T18:55:38.343Z,1.60
2022-08-31T18:58:05.509Z,1.17
2022-08-31T19:00:33.151Z,1.30
2022-08-31T19:03:02.408Z,1.90
2022-08-31T19:05:29.615Z,1.10
2022-08-31T19:07:58.808Z,1.40
2022-08-31T19:10:26.461Z,1.08
2022-08-31T19:12:55.516Z,1.10
2022-08-31T19:15:25.622Z,1.30
2022-08-31T19:18:02.283Z,1.40
2022-08-31T19:20:30.031Z,1.10
2022-08-31T19:22:57.289Z,2.03
2022-08-31T19:25:24.541Z,2.25
2022-08-31T19:27:52.482Z,1.80
2022-08-31T19:30:24.375Z,1.90
2022-08-31T19:32:53.620Z,1.52
2022-08-31T19:35:20.982Z,2.00
2022-08-31T19:37:51.574Z,1.73
2022-08-31T19:40:18.742Z,1.83
2022-08-31T19:45:43.196Z,1.45
2022-08-31T19:48:12.363Z,1.48
2022-08-31T19:50:42.087Z,1.67
2022-08-31T19:53:14.094Z,2.00
2022-08-31T19:55:50.450Z,2.00
2022-08-31T19:58:19.470Z,1.58
2022-08-31T20:00:48.021Z,1.33
2022-08-31T20:03:15.767Z,1.55
2022-08-31T20:05:43.184Z,1.50
2022-08-31T20:08:10.528Z,1.73
2022-08-31T20:10:46.084Z,1.60
2022-08-31T20:13:13.296Z,1.83
2022-08-31T20:15:42.842Z,2.00
2022-08-31T20:18:11.721Z,1.98
2022-08-31T20:20:46.012Z,1.95
2022-08-31T20:23:16.349Z,2.00
2022-08-31T20:25:45.367Z,1.85
2022-08-31T20:28:13.299Z,1.90
2022-08-31T20:30:41.472Z,1.77
2022-08-31T20:33:09.733Z,2.20
2022-08-31T20:35:41.411Z,2.03
2022-08-31T20:38:14.322Z,1.85
2022-08-31T20:40:43.221Z,1.98
2022-08-31T20:43:12.867Z,1.70
2022-08-31T20:45:41.559Z,1.85
2022-08-31T20:48:27.992Z,1.88
2022-08-31T20:50:56.235Z,1.83
2022-08-31T20:53:38.966Z,1.50
2022-08-31T20:56:16.919Z,1.67
2022-08-31T20:58:45.695Z,1.90
2022-08-31T21:01:13.762Z,1.60
2022-08-31T21:03:40.910Z,1.55
2022-08-31T21:06:11.422Z,1.90
2022-08-31T21:08:39.805Z,1.50
2022-08-31T21:11:13.689Z,1.90
2022-08-31T21:13:42.674Z,1.83
2022-08-31T21:16:09.722Z,1.75
2022-08-31T21:18:37.876Z,1.60
2022-08-31T21:21:10.065Z,1.60
2022-08-31T21:23:38.264Z,1.70
2022-08-31T21:26:08.415Z,2.00
2022-08-31T21:28:38.447Z,1.80
2022-08-31T21:31:06.488Z,1.73
2022-08-31T21:33:44.351Z,1.67
2022-08-31T21:36:15.123Z,1.83
2022-08-31T21:38:43.556Z,1.80
2022-08-31T21:41:11.040Z,1.77
2022-08-31T21:43:38.488Z,1.90
2022-08-31T21:46:10.842Z,2.10
2022-08-31T21:48:40.235Z,2.75
2022-08-31T21:51:18.138Z,2.50
2022-08-31T21:53:47.652Z,1.73
2022-08-31T21:56:14.738Z,2.00
2022-08-31T21:58:41.592Z,2.10
2022-08-31T22:01:12.998Z,2.20
2022-08-31T22:03:40.549Z,2.15
2022-08-31T22:06:09.991Z,1.90
2022-08-31T22:08:38.880Z,1.95
2022-08-31T22:11:08.121Z,2.15
2022-08-31T22:13:38.731Z,2.20
2022-08-31T22:16:16.157Z,2.20
2022-08-31T22:19:02.154Z,2.20
2022-08-31T22:21:35.077Z,2.20
2022-08-31T22:24:06.924Z,2.38
2022-08-31T22:26:39.705Z,1.98
2022-08-31T22:29:07.939Z,2.20
2022-08-31T22:31:39.024Z,2.17
2022-08-31T22:34:08.751Z,2.38
2022-08-31T22:36:35.918Z,2.35
2022-08-31T22:39:10.563Z,2.20
2022-08-31T22:41:41.104Z,1.92
2022-08-31T22:44:11.820Z,2.30
2022-08-31T22:46:39.992Z,2.15
2022-08-31T22:49:07.726Z,2.25
2022-08-31T22:51:41.395Z,2.17
2022-08-31T22:54:09.866Z,2.20
2022-08-31T22:56:39.634Z,2.35
2022-08-31T22:59:11.008Z,2.10
2022-08-31T23:01:43.741Z,1.98
2022-08-31T23:04:14.694Z,2.05
2022-08-31T23:06:41.524Z,2.38
2022-08-31T23:09:10.628Z,2.20
2022-08-31T23:11:38.385Z,2.35
2022-08-31T23:14:08.850Z,2.40
2022-08-31T23:16:38.769Z,2.53
2022-08-31T23:19:12.551Z,2.38
2022-08-31T23:21:45.883Z,2.45
2022-08-31T23:24:16.589Z,2.50
2022-08-31T23:26:44.827Z,2.10
2022-08-31T23:29:13.255Z,2.45
2022-08-31T23:31:40.676Z,2.40
2022-08-31T23:34:11.419Z,2.50
2022-08-31T23:36:38.617Z,2.30
2022-08-31T23:39:05.707Z,2.42
2022-08-31T23:41:34.801Z,2.70
2022-08-31T23:44:09.142Z,2.60
2022-08-31T23:49:06.672Z,2.67
2022-08-31T23:51:33.863Z,2.53
2022-08-31T23:54:05.411Z,2.65
2022-08-31T23:56:33.055Z,3.03
2022-08-31T23:59:03.715Z,2.42
